Time;durP1;ratioP1;P1;durP2;ratioP2;P2;SDS_P1;SDS_P2;PMS_P1;PMS_P2;Temp;Humidity;BMP_temperature;BMP_pressure;BME280_temperature;BME280_humidity;BME280_pressure;Samples;Min_cycle;Max_cycle;Signal;HPM_P1;HPM_P2
2021/07/09 04:02:29;;;;;;;14.30;13.20;;;17.60;99.90;;;;;;5050762;23;20504;-68
2021/07/09 04:04:56;;;;;;;16.40;12.47;;;17.60;99.90;;;;;;4953829;29;21085;-71
2021/07/09 04:07:22;;;;;;;13.83;12.53;;;17.60;99.90;;;;;;4968604;28;20480;-69
2021/07/09 04:09:49;;;;;;;13.20;11.97;;;17.70;99.90;;;;;;4974280;28;20542;-68
2021/07/09 04:12:16;;;;;;;12.73;11.40;;;17.80;99.90;;;;;;4959433;28;20547;-68
2021/07/09 04:14:43;;;;;;;13.47;12.10;;;17.90;99.90;;;;;;4954238;29;20473;-69
2021/07/09 04:17:09;;;;;;;12.00;11.07;;;17.90;99.90;;;;;;4965997;28;20463;-68
2021/07/09 04:19:37;;;;;;;13.37;12.17;;;18.00;99.90;;;;;;4973862;28;20459;-68
2021/07/09 04:22:04;;;;;;;12.10;11.10;;;18.00;99.90;;;;;;4961227;28;20500;-69
2021/07/09 04:24:33;;;;;;;13.30;11.10;;;18.00;99.90;;;;;;4954567;29;20464;-68
2021/07/09 04:26:59;;;;;;;12.30;11.50;;;18.20;99.90;;;;;;4966864;28;20463;-68
2021/07/09 04:29:26;;;;;;;12.20;11.17;;;18.20;99.90;;;;;;4977481;28;20471;-69
2021/07/09 04:31:53;;;;;;;10.83;10.13;;;18.50;99.90;;;;;;4969736;28;20527;-69
2021/07/09 04:34:19;;;;;;;9.53;8.57;;;18.90;99.90;;;;;;4959097;28;20468;-70
2021/07/09 04:36:47;;;;;;;9.70;8.90;;;19.40;99.90;;;;;;4964461;28;20458;-69
2021/07/09 04:39:14;;;;;;;11.23;10.03;;;19.80;99.90;;;;;;4944297;28;20473;-68
2021/07/09 04:41:41;;;;;;;10.30;9.50;;;20.20;99.90;;;;;;4958653;28;20480;-68
2021/07/09 04:44:07;;;;;;;9.43;8.73;;;20.40;99.90;;;;;;4958032;28;20480;-69
2021/07/09 04:46:35;;;;;;;8.17;7.77;;;20.90;99.90;;;;;;4962366;28;20479;-69
2021/07/09 04:49:02;;;;;;;7.67;7.00;;;21.20;99.90;;;;;;4977556;28;20562;-69
2021/07/09 04:51:28;;;;;;;7.57;7.03;;;21.30;99.90;;;;;;4960474;28;20796;-70
2021/07/09 04:53:56;;;;;;;8.23;7.63;;;21.40;99.90;;;;;;4963910;28;20587;-70
2021/07/09 04:56:23;;;;;;;7.63;7.13;;;21.20;99.90;;;;;;4959447;28;20814;-70
2021/07/09 04:58:49;;;;;;;8.27;7.53;;;21.10;99.90;;;;;;4977615;28;20513;-70
2021/07/09 05:01:16;;;;;;;8.73;8.13;;;20.90;99.90;;;;;;4976974;28;20542;-69
2021/07/09 05:03:42;;;;;;;9.20;8.60;;;20.70;99.90;;;;;;4958609;28;20460;-70
2021/07/09 05:06:09;;;;;;;9.17;8.27;;;20.40;99.90;;;;;;4957615;28;20889;-70
2021/07/09 05:08:36;;;;;;;10.53;9.73;;;20.30;99.90;;;;;;4976135;28;20499;-70
2021/07/09 05:11:05;;;;;;;10.13;9.33;;;20.20;99.90;;;;;;4977422;28;20550;-70
2021/07/09 05:13:31;;;;;;;10.40;9.40;;;20.10;99.90;;;;;;4960167;28;20460;-70
2021/07/09 05:16:00;;;;;;;9.60;8.83;;;20.00;99.90;;;;;;4960979;28;20474;-70
2021/07/09 05:18:26;;;;;;;9.70;8.53;;;19.90;99.90;;;;;;4961241;28;20461;-70
2021/07/09 05:20:53;;;;;;;11.40;9.70;;;20.00;99.90;;;;;;4975167;28;20495;-70
2021/07/09 05:23:20;;;;;;;9.10;8.47;;;20.00;99.90;;;;;;4962593;28;20885;-70
2021/07/09 05:25:46;;;;;;;9.07;8.47;;;20.10;99.90;;;;;;4960619;28;20480;-70
2021/07/09 05:28:14;;;;;;;9.10;8.50;;;20.20;99.90;;;;;;4961920;28;20464;-70
2021/07/09 05:30:41;;;;;;;8.40;7.70;;;20.30;99.90;;;;;;4959914;28;20492;-70
2021/07/09 05:33:09;;;;;;;8.33;7.93;;;20.40;99.90;;;;;;4967327;28;20461;-70
2021/07/09 05:35:37;;;;;;;9.13;8.03;;;20.40;99.90;;;;;;4958002;28;20473;-70
2021/07/09 05:38:05;;;;;;;8.60;8.00;;;20.40;99.90;;;;;;4976448;28;20503;-70
2021/07/09 05:40:31;;;;;;;8.13;7.43;;;20.40;99.90;;;;;;4976327;28;21000;-69
2021/07/09 05:42:58;;;;;;;7.70;7.30;;;20.40;99.90;;;;;;4957438;28;20547;-70
2021/07/09 05:45:26;;;;;;;8.40;7.60;;;20.40;99.90;;;;;;4958266;29;21000;-70
2021/07/09 05:47:52;;;;;;;7.87;7.40;;;20.40;99.90;;;;;;4975887;28;20460;-70
2021/07/09 05:50:19;;;;;;;6.83;6.53;;;20.40;99.90;;;;;;4961938;28;20479;-70
2021/07/09 05:52:46;;;;;;;7.57;6.90;;;20.40;99.90;;;;;;4973197;28;20511;-68
2021/07/09 05:55:13;;;;;;;7.10;6.70;;;20.40;99.90;;;;;;4971326;28;20522;-68
2021/07/09 05:57:40;;;;;;;6.70;6.20;;;20.30;99.90;;;;;;4956645;28;20460;-70
2021/07/09 06:00:08;;;;;;;8.00;7.40;;;20.30;99.90;;;;;;4972169;28;20483;-69
2021/07/09 06:02:36;;;;;;;8.90;8.10;;;20.30;99.90;;;;;;4971840;28;20504;-68
2021/07/09 06:05:03;;;;;;;6.37;6.00;;;20.20;99.90;;;;;;4939310;28;20632;-68
2021/07/09 06:07:30;;;;;;;7.30;6.73;;;20.30;99.90;;;;;;4965095;28;20523;-69
2021/07/09 06:09:56;;;;;;;7.53;7.03;;;20.30;99.90;;;;;;4967613;28;20759;-69
2021/07/09 06:12:23;;;;;;;7.83;7.23;;;20.20;99.90;;;;;;4958457;28;20481;-68
2021/07/09 06:14:51;;;;;;;7.50;7.10;;;20.10;99.90;;;;;;4970119;28;20464;-68
2021/07/09 06:17:18;;;;;;;8.37;7.77;;;20.10;99.90;;;;;;4943831;28;20461;-68
2021/07/09 06:19:45;;;;;;;7.10;6.73;;;20.20;99.90;;;;;;4959419;28;20456;-68
2021/07/09 06:22:12;;;;;;;6.87;6.57;;;20.30;99.90;;;;;;4964324;28;20886;-67
2021/07/09 06:24:39;;;;;;;9.23;7.30;;;20.30;99.90;;;;;;4960952;28;20452;-66
2021/07/09 06:27:07;;;;;;;5.70;5.40;;;20.40;99.90;;;;;;4958984;28;20863;-66
2021/07/09 06:29:34;;;;;;;6.30;5.90;;;20.50;99.90;;;;;;4966537;28;20487;-66
2021/07/09 06:32:00;;;;;;;6.47;6.03;;;20.60;99.90;;;;;;4961018;28;20495;-68
2021/07/09 06:34:27;;;;;;;6.17;5.90;;;20.80;99.90;;;;;;4974535;28;20460;-67
2021/07/09 06:36:55;;;;;;;6.87;6.47;;;21.10;99.90;;;;;;4957992;28;20469;-67
2021/07/09 06:39:21;;;;;;;7.23;6.83;;;21.30;99.90;;;;;;4960610;28;20464;-67
2021/07/09 06:41:48;;;;;;;6.87;6.10;;;21.50;99.90;;;;;;4955731;28;20559;-68
2021/07/09 06:44:15;;;;;;;5.57;5.30;;;21.60;99.90;;;;;;4956306;28;20968;-68
2021/07/09 06:46:43;;;;;;;5.47;5.20;;;21.80;99.90;;;;;;4955304;29;20488;-68
2021/07/09 06:49:10;;;;;;;5.73;5.43;;;21.70;99.90;;;;;;4954005;28;20469;-68
2021/07/09 06:51:37;;;;;;;5.40;5.20;;;21.70;99.90;;;;;;4974352;28;20846;-68
2021/07/09 06:54:05;;;;;;;5.53;5.13;;;21.60;99.90;;;;;;4971987;28;20477;-71
2021/07/09 06:56:31;;;;;;;8.67;5.93;;;21.50;99.90;;;;;;4957793;28;20472;-72
2021/07/09 06:58:58;;;;;;;5.90;5.37;;;21.50;99.90;;;;;;4952827;28;20465;-68
2021/07/09 07:01:25;;;;;;;5.37;4.83;;;21.40;99.90;;;;;;4954597;28;20551;-66
2021/07/09 07:03:52;;;;;;;4.90;4.70;;;21.50;99.90;;;;;;4946756;28;20469;-65
2021/07/09 07:06:18;;;;;;;5.00;4.70;;;21.20;99.90;;;;;;4954035;28;20484;-65
2021/07/09 07:08:45;;;;;;;5.20;4.93;;;21.30;99.90;;;;;;4953945;28;20953;-66
2021/07/09 07:11:13;;;;;;;5.53;5.30;;;21.40;99.90;;;;;;4952872;28;20883;-70
2021/07/09 07:13:39;;;;;;;5.73;5.43;;;21.40;99.90;;;;;;4951651;28;20473;-67
2021/07/09 07:16:07;;;;;;;4.73;4.63;;;21.40;99.90;;;;;;4953021;29;21024;-68
2021/07/09 07:18:34;;;;;;;5.00;4.90;;;21.30;99.90;;;;;;4948071;28;20461;-69
2021/07/09 07:21:01;;;;;;;9.10;5.90;;;21.20;99.90;;;;;;4944655;28;20488;-69
2021/07/09 07:23:28;;;;;;;6.37;5.80;;;21.20;99.90;;;;;;4953877;28;20469;-67
2021/07/09 07:25:54;;;;;;;6.03;5.73;;;21.10;99.90;;;;;;4954657;29;20489;-67
2021/07/09 07:28:22;;;;;;;5.50;5.20;;;21.10;99.90;;;;;;4954573;28;20818;-68
2021/07/09 07:30:49;;;;;;;6.07;5.67;;;21.10;99.90;;;;;;4953550;28;20980;-67
2021/07/09 07:33:16;;;;;;;5.80;5.50;;;21.10;99.90;;;;;;4953582;28;20497;-67
2021/07/09 07:35:43;;;;;;;5.90;5.60;;;21.10;99.90;;;;;;4953785;29;20472;-68
2021/07/09 07:38:10;;;;;;;6.37;5.77;;;21.10;99.90;;;;;;4954256;28;20472;-69
2021/07/09 07:40:37;;;;;;;5.40;5.10;;;21.00;99.90;;;;;;4953813;28;20502;-68
2021/07/09 07:43:05;;;;;;;5.33;5.20;;;21.10;99.90;;;;;;4953099;28;20988;-68
2021/07/09 07:45:34;;;;;;;4.90;4.60;;;21.40;99.90;;;;;;4953041;28;20476;-69
2021/07/09 07:48:00;;;;;;;5.10;4.70;;;21.80;99.90;;;;;;4952567;28;20968;-68
2021/07/09 07:50:27;;;;;;;4.93;4.73;;;22.00;99.90;;;;;;4952567;28;20488;-68
2021/07/09 07:52:54;;;;;;;5.37;4.87;;;22.00;99.90;;;;;;4953379;28;20473;-68
2021/07/09 07:55:21;;;;;;;4.53;4.10;;;22.20;99.90;;;;;;4954767;28;20563;-69
2021/07/09 07:57:48;;;;;;;4.47;4.27;;;22.30;99.90;;;;;;4955988;28;20461;-69
2021/07/09 08:00:15;;;;;;;4.73;4.43;;;22.40;99.90;;;;;;4947456;28;20492;-68
2021/07/09 08:02:43;;;;;;;4.37;4.27;;;22.50;99.90;;;;;;4960289;28;20467;-68
2021/07/09 08:05:11;;;;;;;4.40;4.20;;;22.80;99.90;;;;;;4970947;28;20530;-69
2021/07/09 08:07:37;;;;;;;3.90;3.70;;;22.70;99.90;;;;;;4972356;28;20495;-68
2021/07/09 08:10:05;;;;;;;4.80;4.20;;;22.70;99.90;;;;;;4955751;28;20828;-68
2021/07/09 08:12:32;;;;;;;3.90;3.67;;;22.70;99.90;;;;;;4955927;28;20972;-68
2021/07/09 08:14:59;;;;;;;4.10;3.90;;;22.70;99.90;;;;;;4966567;28;20460;-70
2021/07/09 08:17:25;;;;;;;3.63;3.43;;;22.70;99.90;;;;;;4969539;28;21028;-68
2021/07/09 08:19:53;;;;;;;4.20;3.80;;;22.70;99.90;;;;;;4956711;28;20468;-71
2021/07/09 08:22:20;;;;;;;3.30;3.20;;;22.50;99.90;;;;;;4953124;28;20543;-69
2021/07/09 08:24:46;;;;;;;3.80;3.60;;;22.60;99.90;;;;;;4960561;28;20515;-68
2021/07/09 08:27:13;;;;;;;4.80;3.53;;;22.70;99.90;;;;;;4953754;29;20528;-69
2021/07/09 08:29:40;;;;;;;3.97;3.80;;;22.80;99.90;;;;;;4969457;28;20471;-70
2021/07/09 08:32:14;;;;;;;3.90;3.60;;;22.80;99.90;;;;;;4973768;28;20512;-67
2021/07/09 08:34:41;;;;;;;4.30;4.00;;;22.80;99.90;;;;;;4988946;28;20474;-71
2021/07/09 08:37:09;;;;;;;3.97;3.87;;;22.80;99.90;;;;;;4988995;28;20504;-71
2021/07/09 08:39:36;;;;;;;3.70;3.60;;;22.90;99.90;;;;;;4965085;28;20487;-70
2021/07/09 08:42:02;;;;;;;6.40;5.80;;;23.10;99.90;;;;;;4970514;28;20565;-70
2021/07/09 08:44:29;;;;;;;3.90;3.80;;;23.30;99.90;;;;;;4951950;28;20591;-70
2021/07/09 08:46:57;;;;;;;3.90;3.80;;;23.40;99.90;;;;;;4953670;28;20551;-70
2021/07/09 08:49:24;;;;;;;3.40;3.20;;;23.40;99.90;;;;;;4951542;28;20496;-70
2021/07/09 08:51:51;;;;;;;4.10;4.00;;;23.30;99.90;;;;;;4953137;28;20484;-70
2021/07/09 08:54:20;;;;;;;4.00;3.80;;;23.20;99.90;;;;;;4953013;28;20876;-69
2021/07/09 08:56:48;;;;;;;4.27;4.17;;;23.10;99.90;;;;;;4953460;29;20461;-70
2021/07/09 08:59:15;;;;;;;4.67;4.23;;;23.00;99.90;;;;;;4952592;28;20468;-70
2021/07/09 09:01:49;;;;;;;4.33;4.03;;;22.90;99.90;;;;;;4952425;28;20575;-69
2021/07/09 09:04:24;;;;;;;4.47;4.03;;;22.70;99.90;;;;;;4951566;29;20903;-69
2021/07/09 09:07:00;;;;;;;4.37;4.27;;;22.60;99.90;;;;;;4951370;28;20508;-70
2021/07/09 09:09:29;;;;;;;4.50;4.20;;;22.50;99.90;;;;;;4956748;28;21056;-70
2021/07/09 09:12:05;;;;;;;5.30;5.03;;;22.50;99.90;;;;;;4949087;28;20500;-69
2021/07/09 09:14:33;;;;;;;4.40;4.23;;;22.40;99.90;;;;;;4955985;28;21015;-68
2021/07/09 09:17:00;;;;;;;4.50;4.27;;;22.40;99.90;;;;;;4955813;28;20460;-68
2021/07/09 09:19:27;;;;;;;4.90;4.70;;;22.30;99.90;;;;;;4955837;28;20468;-68
2021/07/09 09:22:11;;;;;;;5.17;4.97;;;22.30;99.90;;;;;;4955486;28;20492;-67
2021/07/09 09:24:40;;;;;;;4.50;4.20;;;22.30;99.90;;;;;;4957138;28;20460;-69
2021/07/09 09:27:21;;;;;;;4.20;4.00;;;22.30;99.90;;;;;;4956696;28;20511;-70
2021/07/09 09:29:48;;;;;;;3.80;3.70;;;22.30;99.90;;;;;;4955062;28;20464;-70
2021/07/09 09:32:15;;;;;;;3.90;3.60;;;22.30;99.90;;;;;;4946854;28;20496;-69
2021/07/09 09:34:44;;;;;;;4.50;4.40;;;22.20;99.90;;;;;;4955751;28;20837;-69
2021/07/09 09:37:14;;;;;;;5.13;4.93;;;22.20;99.90;;;;;;4953855;28;20551;-69
2021/07/09 09:39:43;;;;;;;4.53;4.30;;;22.10;99.90;;;;;;4955868;28;20456;-69
2021/07/09 09:42:17;;;;;;;5.67;5.47;;;22.00;99.90;;;;;;4955275;28;21012;-69
2021/07/09 09:44:45;;;;;;;5.10;4.90;;;21.90;99.90;;;;;;4949876;28;20475;-70
2021/07/09 09:47:15;;;;;;;5.63;5.17;;;21.70;99.90;;;;;;4958318;28;21067;-69
2021/07/09 09:49:44;;;;;;;5.47;5.27;;;21.70;99.90;;;;;;4950540;28;20549;-69
2021/07/09 09:52:11;;;;;;;5.10;4.83;;;21.60;99.90;;;;;;4968920;28;20472;-68
2021/07/09 09:54:38;;;;;;;5.70;5.30;;;21.60;99.90;;;;;;4959074;28;20464;-68
2021/07/09 09:57:15;;;;;;;7.90;7.30;;;21.60;99.90;;;;;;4957148;28;20457;-69
2021/07/09 09:59:43;;;;;;;6.77;6.27;;;21.60;99.90;;;;;;4956714;28;20764;-69
2021/07/09 10:02:09;;;;;;;7.73;7.00;;;21.50;99.90;;;;;;4957658;28;20505;-68
2021/07/09 10:04:37;;;;;;;8.13;7.70;;;21.50;99.90;;;;;;4953782;29;20609;-69
2021/07/09 10:07:04;;;;;;;8.10;7.70;;;21.40;99.90;;;;;;4957501;28;20546;-71
2021/07/09 10:09:31;;;;;;;8.60;8.13;;;21.30;99.90;;;;;;4974581;28;20459;-69
2021/07/09 10:12:01;;;;;;;9.30;8.60;;;21.20;99.90;;;;;;4974601;28;20570;-69
2021/07/09 10:14:30;;;;;;;8.80;8.30;;;21.20;99.90;;;;;;4975559;28;20571;-69
2021/07/09 10:17:00;;;;;;;8.87;8.17;;;21.10;99.90;;;;;;4974944;28;20463;-69
2021/07/09 10:19:29;;;;;;;9.17;8.47;;;21.10;99.90;;;;;;4975207;28;20468;-70
2021/07/09 10:21:56;;;;;;;9.43;8.83;;;21.10;99.90;;;;;;4970062;28;20512;-69
2021/07/09 10:24:23;;;;;;;9.50;8.90;;;21.00;99.90;;;;;;4956059;28;20464;-69
2021/07/09 10:26:53;;;;;;;9.50;8.93;;;21.00;99.90;;;;;;4949347;28;20564;-68
2021/07/09 10:29:21;;;;;;;8.57;8.07;;;21.00;99.90;;;;;;4936669;29;20811;-68
2021/07/09 10:31:50;;;;;;;9.60;8.97;;;20.90;99.90;;;;;;4935895;29;20494;-70
2021/07/09 10:34:37;;;;;;;9.40;8.70;;;20.80;99.90;;;;;;4936007;29;20544;-68
2021/07/09 10:37:08;;;;;;;10.97;10.17;;;20.70;99.90;;;;;;4935060;29;20871;-68
2021/07/09 10:39:38;;;;;;;10.63;9.93;;;20.70;99.90;;;;;;4948604;28;20585;-68
2021/07/09 10:42:28;;;;;;;10.60;9.70;;;20.70;99.90;;;;;;4954781;29;20520;-68
2021/07/09 10:45:08;;;;;;;10.83;10.13;;;20.60;99.90;;;;;;4955530;29;20449;-68
2021/07/09 10:47:41;;;;;;;11.13;10.40;;;20.60;99.90;;;;;;4954838;29;20496;-67
2021/07/09 10:50:10;;;;;;;11.20;10.50;;;20.60;99.90;;;;;;4955193;29;20464;-69
2021/07/09 10:52:48;;;;;;;11.07;10.07;;;20.60;99.90;;;;;;4953944;29;20565;-68
2021/07/09 10:55:40;;;;;;;10.77;10.03;;;20.50;99.90;;;;;;4958474;28;20829;-68
2021/07/09 10:58:19;;;;;;;10.27;9.47;;;20.50;99.90;;;;;;4973901;28;20463;-68
2021/07/09 11:00:47;;;;;;;11.50;10.60;;;20.40;99.90;;;;;;4973531;28;20496;-70
2021/07/09 11:03:31;;;;;;;12.33;11.53;;;20.30;99.90;;;;;;4973997;28;20554;-67
2021/07/09 11:06:03;;;;;;;11.40;10.67;;;20.30;99.90;;;;;;4972907;28;20452;-68
2021/07/09 11:08:59;;;;;;;11.80;10.90;;;20.30;99.90;;;;;;4974207;28;20472;-67
2021/07/09 11:11:47;;;;;;;11.77;10.93;;;20.20;99.90;;;;;;4972610;28;20510;-68
2021/07/09 11:14:16;;;;;;;13.13;11.50;;;20.30;99.90;;;;;;4974909;28;20499;-70
2021/07/09 11:16:44;;;;;;;12.80;11.90;;;20.40;99.90;;;;;;4963199;28;20469;-69
2021/07/09 11:19:17;;;;;;;11.67;10.97;;;20.50;99.90;;;;;;4968800;28;20464;-68
2021/07/09 11:21:44;;;;;;;12.50;11.37;;;20.50;99.90;;;;;;4973166;28;20551;-68
2021/07/09 11:24:13;;;;;;;12.50;11.60;;;20.50;99.90;;;;;;4974035;28;20638;-67
2021/07/09 11:26:42;;;;;;;11.00;10.30;;;20.60;99.90;;;;;;4966705;28;20461;-67
2021/07/09 11:29:24;;;;;;;12.53;11.50;;;20.60;99.90;;;;;;4955227;29;20551;-69
2021/07/09 11:31:51;;;;;;;12.43;11.30;;;20.60;99.90;;;;;;4953932;29;20553;-68
2021/07/09 11:34:21;;;;;;;11.43;10.67;;;20.50;99.90;;;;;;4953932;28;20944;-68
2021/07/09 11:36:50;;;;;;;12.50;11.50;;;20.50;99.90;;;;;;4953369;29;20551;-68
2021/07/09 11:39:18;;;;;;;12.73;11.73;;;20.50;99.90;;;;;;4954709;29;20576;-69
2021/07/09 11:41:51;;;;;;;12.07;10.97;;;20.50;99.90;;;;;;4954423;29;20492;-69
2021/07/09 11:44:18;;;;;;;12.07;11.10;;;20.50;99.90;;;;;;4955647;28;20464;-70
2021/07/09 11:46:48;;;;;;;11.60;10.70;;;20.50;99.90;;;;;;4954508;29;20484;-70
2021/07/09 11:49:19;;;;;;;12.50;11.60;;;20.50;99.90;;;;;;4936819;28;20500;-70
2021/07/09 11:51:48;;;;;;;11.50;10.50;;;20.50;99.90;;;;;;4934190;29;20544;-69
2021/07/09 11:54:14;;;;;;;11.77;10.93;;;20.50;99.90;;;;;;4935234;29;20549;-69
2021/07/09 11:56:42;;;;;;;12.23;11.23;;;20.50;99.90;;;;;;4935131;29;20653;-68
2021/07/09 11:59:16;;;;;;;11.27;10.33;;;20.40;99.90;;;;;;4935838;29;20748;-69
2021/07/09 12:01:42;;;;;;;11.13;10.17;;;20.40;99.90;;;;;;4946572;28;20568;-69
2021/07/09 12:04:09;;;;;;;11.73;10.50;;;20.30;99.90;;;;;;4954094;29;20538;-69
2021/07/09 12:06:37;;;;;;;11.10;10.30;;;20.30;99.90;;;;;;4953428;29;20539;-70
2021/07/09 12:09:04;;;;;;;10.77;9.77;;;20.20;99.90;;;;;;4953937;29;20551;-70
2021/07/09 12:11:30;;;;;;;10.37;9.70;;;20.10;99.90;;;;;;4954703;29;20548;-69
2021/07/09 12:14:10;;;;;;;10.90;10.30;;;20.10;99.90;;;;;;4954038;29;20548;-69
2021/07/09 12:16:37;;;;;;;11.03;10.23;;;20.10;99.90;;;;;;4956996;28;20452;-68
2021/07/09 12:19:04;;;;;;;11.73;10.63;;;20.10;99.90;;;;;;4972365;28;20508;-69
2021/07/09 12:21:30;;;;;;;12.50;11.60;;;20.10;99.90;;;;;;4971634;28;20549;-67
2021/07/09 12:24:06;;;;;;;11.97;11.13;;;20.00;99.90;;;;;;4972770;28;20904;-67
2021/07/09 12:26:34;;;;;;;12.97;11.90;;;20.00;99.90;;;;;;4965039;28;20472;-67
2021/07/09 12:29:01;;;;;;;13.60;12.43;;;19.90;99.90;;;;;;4934331;29;20551;-68
2021/07/09 12:31:27;;;;;;;14.67;13.50;;;19.90;99.90;;;;;;4934180;29;20497;-67
2021/07/09 12:33:55;;;;;;;14.70;13.60;;;19.90;99.90;;;;;;4955261;28;20460;-67
2021/07/09 12:36:22;;;;;;;16.50;14.27;;;19.90;99.90;;;;;;4971618;28;20541;-67
2021/07/09 12:38:59;;;;;;;14.40;13.20;;;19.90;99.90;;;;;;4973092;28;20467;-71
2021/07/09 12:41:35;;;;;;;16.10;14.50;;;19.90;99.90;;;;;;4973023;28;20487;-70
2021/07/09 12:44:07;;;;;;;15.83;14.40;;;19.90;99.90;;;;;;4972823;28;20471;-66
2021/07/09 12:46:34;;;;;;;17.03;15.70;;;19.80;99.90;;;;;;4972162;28;20542;-66
2021/07/09 12:49:02;;;;;;;18.50;16.87;;;19.80;99.90;;;;;;4975797;28;20483;-66
2021/07/09 12:51:32;;;;;;;16.30;14.87;;;19.80;99.90;;;;;;4973916;28;20484;-66
2021/07/09 12:54:01;;;;;;;19.17;17.50;;;19.70;99.90;;;;;;4976164;28;20467;-66
2021/07/09 12:56:30;;;;;;;18.73;17.00;;;19.70;99.90;;;;;;4976165;28;20559;-67
2021/07/09 12:59:04;;;;;;;17.67;16.10;;;19.70;99.90;;;;;;4975980;28;20897;-66
2021/07/09 13:01:31;;;;;;;17.17;15.67;;;19.70;99.90;;;;;;4975655;28;20495;-67
2021/07/09 13:03:58;;;;;;;18.53;16.83;;;19.70;99.90;;;;;;4975752;28;20479;-67
2021/07/09 13:06:30;;;;;;;18.33;16.43;;;19.80;99.90;;;;;;4974592;28;20491;-67
2021/07/09 13:09:12;;;;;;;17.77;16.07;;;19.80;99.90;;;;;;4937305;29;20858;-67
2021/07/09 13:11:40;;;;;;;18.07;16.47;;;19.80;99.90;;;;;;4937248;29;20833;-69
2021/07/09 13:14:08;;;;;;;18.60;16.83;;;19.80;99.90;;;;;;4937163;29;20532;-67
2021/07/09 13:16:47;;;;;;;19.37;17.70;;;19.80;99.90;;;;;;4937396;28;20466;-67
2021/07/09 13:19:14;;;;;;;18.50;16.70;;;19.80;99.90;;;;;;4937391;29;20902;-67
2021/07/09 13:21:48;;;;;;;18.20;16.60;;;19.80;99.90;;;;;;4936641;29;20485;-67
2021/07/09 13:24:15;;;;;;;18.93;17.23;;;19.90;99.90;;;;;;4947908;28;20476;-67
2021/07/09 13:26:44;;;;;;;17.90;16.50;;;19.80;99.90;;;;;;4969202;28;20459;-67
2021/07/09 13:29:20;;;;;;;18.67;17.07;;;19.80;99.90;;;;;;4975927;28;20887;-69
2021/07/09 13:31:49;;;;;;;19.60;17.97;;;19.80;99.90;;;;;;4975711;28;20483;-69
2021/07/09 13:34:16;;;;;;;19.53;17.73;;;19.80;99.90;;;;;;4974537;28;20513;-68
2021/07/09 13:36:43;;;;;;;17.50;16.00;;;19.80;99.90;;;;;;4967134;28;20475;-68
2021/07/09 13:39:10;;;;;;;19.13;17.33;;;19.80;99.90;;;;;;4969264;28;20464;-70
2021/07/09 13:41:37;;;;;;;18.50;16.73;;;19.70;99.90;;;;;;4971209;28;20485;-71
2021/07/09 13:44:04;;;;;;;19.23;17.43;;;19.70;99.90;;;;;;4956109;28;20618;-70
2021/07/09 13:46:32;;;;;;;18.60;17.00;;;19.70;99.90;;;;;;4954649;28;20541;-70
2021/07/09 13:49:01;;;;;;;20.10;18.30;;;19.70;99.90;;;;;;4954552;28;21023;-70
2021/07/09 13:51:28;;;;;;;21.27;19.03;;;19.60;99.90;;;;;;4953377;28;20968;-68
2021/07/09 13:53:54;;;;;;;19.77;18.07;;;19.60;99.90;;;;;;4954155;29;20472;-68
2021/07/09 13:56:21;;;;;;;18.03;16.60;;;19.60;99.90;;;;;;4960385;28;20524;-68
2021/07/09 13:58:48;;;;;;;18.37;16.80;;;19.60;99.90;;;;;;4959792;28;20599;-68
2021/07/09 14:01:15;;;;;;;18.30;16.63;;;19.50;99.90;;;;;;4955160;28;20492;-68
2021/07/09 14:03:43;;;;;;;18.27;16.57;;;19.50;99.90;;;;;;4954412;28;20473;-67
2021/07/09 14:06:12;;;;;;;18.70;16.83;;;19.50;99.90;;;;;;4955388;28;20570;-69
2021/07/09 14:08:39;;;;;;;19.07;17.30;;;19.50;99.90;;;;;;4955205;28;20826;-70
2021/07/09 14:11:06;;;;;;;19.90;18.23;;;19.40;99.90;;;;;;4956438;28;20488;-70
2021/07/09 14:13:35;;;;;;;19.20;17.43;;;19.40;99.90;;;;;;4944169;29;20805;-68
2021/07/09 14:16:02;;;;;;;20.13;18.40;;;19.40;99.90;;;;;;4963247;28;20469;-68
2021/07/09 14:18:30;;;;;;;18.93;17.23;;;19.40;99.90;;;;;;4953607;28;20542;-70
2021/07/09 14:20:58;;;;;;;20.17;18.37;;;19.40;99.90;;;;;;4956188;28;20558;-68
2021/07/09 14:23:25;;;;;;;22.10;19.80;;;19.30;99.90;;;;;;4955621;29;20523;-68
2021/07/09 14:25:52;;;;;;;20.00;18.10;;;19.40;99.90;;;;;;4948671;28;20777;-68
2021/07/09 14:28:20;;;;;;;20.13;18.53;;;19.40;99.90;;;;;;4936267;29;20478;-67
2021/07/09 14:30:47;;;;;;;22.30;20.10;;;19.40;99.90;;;;;;4954044;28;20496;-72
2021/07/09 14:33:14;;;;;;;20.97;19.00;;;19.40;99.90;;;;;;4956622;28;20472;-68
2021/07/09 14:35:41;;;;;;;21.87;19.77;;;19.30;99.90;;;;;;4961222;28;20468;-68
2021/07/09 14:38:10;;;;;;;20.83;18.90;;;19.30;99.90;;;;;;4962634;28;20464;-67
2021/07/09 14:40:37;;;;;;;21.10;19.10;;;19.30;99.90;;;;;;4962534;28;20871;-69
2021/07/09 14:43:04;;;;;;;20.20;18.40;;;19.30;99.90;;;;;;4972765;28;20471;-68
2021/07/09 14:45:31;;;;;;;22.67;20.47;;;19.30;99.90;;;;;;4961152;28;20901;-69
2021/07/09 14:47:59;;;;;;;23.17;20.57;;;19.30;99.90;;;;;;4975000;28;20467;-71
2021/07/09 14:50:26;;;;;;;24.17;21.97;;;19.30;99.90;;;;;;4964141;28;20465;-71
2021/07/09 14:52:52;;;;;;;22.57;20.33;;;19.30;99.90;;;;;;4955990;29;20464;-71
2021/07/09 14:55:21;;;;;;;22.93;20.53;;;19.30;99.90;;;;;;4966036;28;20475;-71
2021/07/09 14:57:48;;;;;;;22.20;20.10;;;19.20;99.90;;;;;;4975539;28;20502;-71
2021/07/09 15:00:16;;;;;;;18.10;16.47;;;19.20;99.90;;;;;;4966777;28;20957;-70
2021/07/09 15:02:45;;;;;;;11.13;10.13;;;19.00;99.90;;;;;;4957756;28;20487;-70
2021/07/09 15:05:12;;;;;;;8.77;8.27;;;18.60;99.90;;;;;;4962257;28;20956;-70
2021/07/09 15:07:38;;;;;;;11.07;10.03;;;18.20;99.90;;;;;;4963089;28;20499;-69
2021/07/09 15:10:07;;;;;;;9.37;8.47;;;18.10;99.90;;;;;;4960700;28;20492;-68
2021/07/09 15:12:35;;;;;;;7.93;7.33;;;18.10;99.90;;;;;;4961868;28;20464;-69
2021/07/09 15:15:02;;;;;;;8.47;7.97;;;17.90;99.90;;;;;;4967333;28;20448;-70
2021/07/09 15:17:28;;;;;;;6.83;6.43;;;17.70;99.90;;;;;;4984408;28;20967;-70
2021/07/09 15:19:55;;;;;;;8.70;7.93;;;17.50;99.90;;;;;;4983532;28;20524;-70
2021/07/09 15:22:22;;;;;;;7.83;7.13;;;17.40;99.90;;;;;;4981863;28;20483;-70
2021/07/09 15:24:48;;;;;;;7.63;6.93;;;17.40;99.90;;;;;;4962246;28;20535;-69
2021/07/09 15:27:15;;;;;;;9.13;7.70;;;17.30;99.90;;;;;;4960137;28;20523;-69
2021/07/09 15:29:43;;;;;;;8.20;7.50;;;17.20;99.90;;;;;;4967135;28;20841;-68
2021/07/09 15:32:10;;;;;;;9.90;9.17;;;17.30;99.90;;;;;;4958490;28;20480;-68
2021/07/09 15:34:37;;;;;;;8.37;7.77;;;17.30;99.90;;;;;;4956672;28;20516;-70
2021/07/09 15:37:04;;;;;;;9.73;9.07;;;17.30;99.90;;;;;;4950489;28;20474;-71
2021/07/09 15:39:31;;;;;;;9.40;8.77;;;17.40;99.90;;;;;;4954805;28;20940;-69
2021/07/09 15:41:57;;;;;;;9.60;8.80;;;17.40;99.90;;;;;;4955860;28;20540;-69
2021/07/09 15:44:24;;;;;;;9.37;8.67;;;17.40;99.90;;;;;;4954727;28;20471;-69
2021/07/09 15:46:52;;;;;;;11.23;10.33;;;17.40;99.90;;;;;;4956276;28;20476;-70
2021/07/09 15:49:19;;;;;;;11.00;10.00;;;17.40;99.90;;;;;;4954820;28;20807;-70
2021/07/09 15:51:46;;;;;;;9.93;9.17;;;17.30;99.90;;;;;;4955563;28;20551;-69
2021/07/09 15:54:12;;;;;;;9.00;8.30;;;17.40;99.90;;;;;;4955149;29;20520;-70
2021/07/09 15:56:39;;;;;;;12.13;8.00;;;17.40;99.90;;;;;;4950884;28;20528;-70
2021/07/09 15:59:06;;;;;;;10.13;9.10;;;17.40;99.90;;;;;;4954894;28;20456;-72
2021/07/09 16:01:32;;;;;;;9.60;8.73;;;17.40;99.90;;;;;;4953757;28;20480;-71
2021/07/09 16:04:00;;;;;;;10.83;9.87;;;17.40;99.90;;;;;;4942269;28;20866;-71
2021/07/09 16:06:27;;;;;;;10.63;9.60;;;17.40;99.90;;;;;;4949028;28;20465;-72
2021/07/09 16:08:54;;;;;;;10.50;9.70;;;17.40;99.90;;;;;;4954784;28;20492;-69
2021/07/09 16:11:20;;;;;;;13.50;10.57;;;17.40;99.90;;;;;;4953760;28;20571;-70
2021/07/09 16:13:47;;;;;;;11.50;10.47;;;17.40;99.90;;;;;;4954153;28;20470;-71
2021/07/09 16:16:13;;;;;;;10.43;9.63;;;17.40;99.90;;;;;;4954311;28;20464;-71
2021/07/09 16:18:40;;;;;;;10.63;9.60;;;17.40;99.90;;;;;;4954419;28;20472;-71
2021/07/09 16:21:08;;;;;;;9.20;8.50;;;17.40;99.90;;;;;;4952780;28;21356;-71
2021/07/09 16:23:35;;;;;;;10.23;9.10;;;17.40;99.90;;;;;;4959363;28;20475;-71
2021/07/09 16:26:01;;;;;;;10.47;9.60;;;17.40;99.90;;;;;;4959332;28;20523;-72
2021/07/09 16:28:28;;;;;;;11.53;10.53;;;17.40;99.90;;;;;;4966423;28;20455;-72
2021/07/09 16:30:55;;;;;;;10.80;10.00;;;17.40;99.90;;;;;;4959224;28;20484;-72
2021/07/09 16:33:22;;;;;;;11.30;10.50;;;17.40;99.90;;;;;;4976346;28;20456;-72
2021/07/09 16:35:48;;;;;;;11.03;10.00;;;17.40;99.90;;;;;;4960558;28;20464;-70
2021/07/09 16:38:16;;;;;;;10.47;9.67;;;17.40;99.90;;;;;;4948549;28;20872;-71
2021/07/09 16:40:43;;;;;;;11.33;10.50;;;17.40;99.90;;;;;;4962368;28;21000;-72
2021/07/09 16:43:10;;;;;;;11.47;10.47;;;17.40;99.90;;;;;;4958309;28;20468;-71
2021/07/09 16:45:36;;;;;;;11.30;10.40;;;17.40;99.90;;;;;;4969948;28;20924;-71